createdAt,value
2022-11-06T00:03:09.733Z,98174.16
2022-11-06T00:08:11.315Z,98166.75
2022-11-06T00:13:12.853Z,98163.91
2022-11-06T00:18:14.385Z,98169.50
2022-11-06T00:23:15.986Z,98172.94
2022-11-06T00:28:17.292Z,98174.75
2022-11-06T00:33:18.573Z,98174.66
2022-11-06T00:38:19.825Z,98187.13
2022-11-06T00:43:21.027Z,98183.94
2022-11-06T00:48:22.250Z,98190.75
2022-11-06T00:53:23.508Z,98194.19
2022-11-06T00:58:24.720Z,98189.19
2022-11-06T01:03:25.937Z,98192.34
2022-11-06T01:08:27.152Z,98182.53
2022-11-06T01:13:28.478Z,98179.31
2022-11-06T01:18:29.740Z,98171.47
2022-11-06T01:23:30.997Z,98164.84
2022-11-06T01:28:32.232Z,98165.19
2022-11-06T01:33:33.458Z,98169.34
2022-11-06T01:38:34.677Z,98182.81
2022-11-06T01:43:35.929Z,98180.00
2022-11-06T01:48:37.170Z,98174.53
2022-11-06T01:53:38.421Z,98169.59
2022-11-06T01:58:40.693Z,98156.97
2022-11-06T02:03:42.640Z,98160.38
2022-11-06T02:08:43.868Z,98163.50
2022-11-06T02:13:45.077Z,98161.03
2022-11-06T02:18:46.291Z,98172.50
2022-11-06T02:23:47.533Z,98169.31
2022-11-06T02:28:48.755Z,98168.41
2022-11-06T02:33:49.963Z,98167.78
2022-11-06T02:38:51.259Z,98171.06
2022-11-06T02:43:52.525Z,98174.88
2022-11-06T02:48:53.772Z,98174.53
2022-11-06T02:53:54.993Z,98176.44
2022-11-06T02:58:56.249Z,98176.19
2022-11-06T03:03:57.482Z,98181.34
2022-11-06T03:08:58.709Z,98178.13
2022-11-06T03:13:59.925Z,98189.84
2022-11-06T03:19:01.199Z,98184.47
2022-11-06T03:24:02.480Z,98176.34
2022-11-06T03:29:03.699Z,98172.47
2022-11-06T03:34:05.003Z,98172.03
2022-11-06T03:39:06.229Z,98177.66
2022-11-06T03:44:07.519Z,98172.84
2022-11-06T03:49:08.765Z,98169.69
2022-11-06T03:54:10.179Z,98159.84
2022-11-06T03:59:11.571Z,98146.47
2022-11-06T04:04:12.840Z,98143.00
2022-11-06T04:09:32.997Z,98140.72
2022-11-06T04:14:34.255Z,98122.28
2022-11-06T04:19:35.487Z,98124.78
2022-11-06T04:24:55.659Z,98115.63
2022-11-06T04:29:56.920Z,98119.28
2022-11-06T04:34:58.155Z,98112.41
2022-11-06T04:39:59.384Z,98101.28
2022-11-06T04:45:00.629Z,98097.28
2022-11-06T04:50:02.198Z,98090.69
2022-11-06T04:55:03.528Z,98092.59
2022-11-06T05:00:04.779Z,98084.88
2022-11-06T05:05:06.514Z,98094.91
2022-11-06T05:10:07.920Z,98097.31
2022-11-06T05:15:09.191Z,98095.75
2022-11-06T05:20:10.605Z,98078.25
2022-11-06T05:25:12.192Z,98076.13
2022-11-06T05:30:13.445Z,98085.47
2022-11-06T05:35:14.672Z,98089.63
2022-11-06T05:40:15.886Z,98081.13
2022-11-06T05:45:17.143Z,98084.50
2022-11-06T05:50:18.388Z,98088.97
2022-11-06T05:55:19.621Z,98081.81
2022-11-06T06:00:20.868Z,98085.75
2022-11-06T06:05:22.096Z,98083.56
2022-11-06T06:10:23.342Z,98093.28
2022-11-06T06:15:24.585Z,98093.75
2022-11-06T06:20:25.796Z,98090.16
2022-11-06T06:25:27.135Z,98084.50
2022-11-06T06:30:28.446Z,98070.72
2022-11-06T06:35:29.676Z,98079.91
2022-11-06T06:40:30.937Z,98084.69
2022-11-06T06:45:32.181Z,98098.69
2022-11-06T06:50:33.423Z,98087.00
2022-11-06T06:55:34.713Z,98078.75
2022-11-06T07:00:36.010Z,98078.06
2022-11-06T07:05:37.244Z,98086.84
2022-11-06T07:10:38.496Z,98108.81
2022-11-06T07:15:39.692Z,98096.13
2022-11-06T07:20:40.898Z,98101.63
2022-11-06T07:25:42.123Z,98102.47
2022-11-06T07:30:43.588Z,98103.19
2022-11-06T07:35:44.832Z,98110.94
2022-11-06T07:40:46.029Z,98110.91
2022-11-06T07:45:47.240Z,98118.81
2022-11-06T07:50:48.447Z,98128.25
2022-11-06T07:55:49.865Z,98139.78
2022-11-06T08:00:51.209Z,98139.00
2022-11-06T08:05:52.515Z,98127.22
2022-11-06T08:10:53.833Z,98120.84
2022-11-06T08:15:55.071Z,98095.63
2022-11-06T08:20:56.299Z,98093.88
2022-11-06T08:25:57.615Z,98085.53
2022-11-06T08:30:58.844Z,98075.75
2022-11-06T08:36:00.089Z,98066.03
2022-11-06T08:41:01.297Z,98056.50
2022-11-06T08:46:02.500Z,98064.94
2022-11-06T08:51:05.896Z,98062.59
2022-11-06T08:56:07.127Z,98057.22
2022-11-06T09:01:08.463Z,98040.56
2022-11-06T09:06:09.808Z,98037.00
2022-11-06T09:11:12.016Z,98012.56
2022-11-06T09:16:15.989Z,98021.63
2022-11-06T09:21:17.857Z,98025.81
2022-11-06T09:26:19.113Z,98001.28
2022-11-06T09:31:20.325Z,97994.41
2022-11-06T09:36:21.561Z,97989.09
2022-11-06T09:41:22.760Z,97987.09
2022-11-06T09:46:23.995Z,97977.53
2022-11-06T09:51:25.239Z,97965.50
2022-11-06T09:56:26.608Z,97962.25
2022-11-06T10:01:27.903Z,97952.84
2022-11-06T10:06:29.196Z,97947.13
2022-11-06T10:11:30.440Z,97939.47
2022-11-06T10:16:31.661Z,97937.31
2022-11-06T10:21:32.872Z,97923.16
2022-11-06T10:26:34.167Z,97908.94
2022-11-06T10:31:35.416Z,97895.88
2022-11-06T10:36:48.682Z,97895.22
2022-11-06T10:41:51.038Z,97886.50
2022-11-06T10:46:52.262Z,97884.16
2022-11-06T10:51:53.787Z,97883.38
2022-11-06T10:56:55.037Z,97857.50
2022-11-06T11:01:56.477Z,97850.19
2022-11-06T11:06:57.735Z,97839.84
2022-11-06T11:11:58.920Z,97836.56
2022-11-06T11:17:00.243Z,97827.44
2022-11-06T11:22:01.460Z,97818.34
2022-11-06T11:27:02.729Z,97813.47
2022-11-06T11:32:04.012Z,97793.75
2022-11-06T11:37:05.387Z,97775.47
2022-11-06T11:42:06.825Z,97768.72
2022-11-06T11:47:09.261Z,97758.09
2022-11-06T11:52:10.538Z,97739.97
2022-11-06T11:57:11.757Z,97729.66
2022-11-06T12:02:13.095Z,97719.56
2022-11-06T12:07:14.429Z,97703.56
2022-11-06T12:12:15.632Z,97680.13
2022-11-06T12:17:16.906Z,97677.91
2022-11-06T12:22:18.099Z,97664.56
2022-11-06T12:27:19.329Z,97660.63
2022-11-06T12:32:20.555Z,97659.22
2022-11-06T12:37:21.779Z,97647.22
2022-11-06T12:42:23.096Z,97646.66
2022-11-06T12:47:26.543Z,97642.53
2022-11-06T12:52:28.595Z,97635.50
2022-11-06T12:57:29.825Z,97628.59
2022-11-06T13:02:31.106Z,97617.16
2022-11-06T13:07:32.373Z,97616.72
2022-11-06T13:12:33.945Z,97609.56
2022-11-06T13:17:35.216Z,97605.47
2022-11-06T13:22:36.777Z,97598.97
2022-11-06T13:27:38.515Z,97591.38
2022-11-06T13:32:39.872Z,97577.25
2022-11-06T13:37:44.318Z,97559.78
2022-11-06T13:42:45.569Z,97540.41
2022-11-06T13:47:46.846Z,97528.63
2022-11-06T13:52:48.071Z,97518.75
2022-11-06T13:57:50.327Z,97511.63
2022-11-06T14:02:51.955Z,97497.66
2022-11-06T14:07:53.151Z,97494.00
2022-11-06T14:12:54.354Z,97493.22
2022-11-06T14:17:55.606Z,97485.19
2022-11-06T14:22:56.872Z,97472.03
2022-11-06T14:27:58.075Z,97469.16
2022-11-06T14:32:59.290Z,97456.78
2022-11-06T14:38:00.537Z,97439.38
2022-11-06T14:43:01.803Z,97429.06
2022-11-06T14:48:03.051Z,97430.19
2022-11-06T14:53:04.387Z,97432.78
2022-11-06T14:58:05.635Z,97426.81
2022-11-06T15:03:07.030Z,97420.63
2022-11-06T15:08:08.243Z,97424.16
2022-11-06T15:13:09.493Z,97410.25
2022-11-06T15:18:10.796Z,97414.81
2022-11-06T15:23:13.749Z,97419.72
2022-11-06T15:28:15.230Z,97406.44
2022-11-06T15:33:16.912Z,97402.31
2022-11-06T15:38:18.232Z,97387.97
2022-11-06T15:43:19.477Z,97387.03
2022-11-06T15:48:20.834Z,97389.00
2022-11-06T15:53:22.115Z,97410.72
2022-11-06T15:58:28.083Z,97405.28
2022-11-06T16:03:32.181Z,97407.38
2022-11-06T16:08:33.564Z,97411.25
2022-11-06T16:13:34.829Z,97423.84
2022-11-06T16:18:36.177Z,97429.53
2022-11-06T16:23:39.301Z,97430.50
2022-11-06T16:28:40.969Z,97431.59
2022-11-06T16:33:42.552Z,97423.78
2022-11-06T16:38:44.077Z,97420.06
2022-11-06T16:43:45.410Z,97422.31
2022-11-06T16:48:46.666Z,97432.22
2022-11-06T16:53:48.237Z,97431.28
2022-11-06T16:58:49.479Z,97432.16
2022-11-06T17:03:50.703Z,97449.13
2022-11-06T17:08:51.916Z,97459.19
2022-11-06T17:13:53.229Z,97460.41
2022-11-06T17:18:57.012Z,97460.78
2022-11-06T17:24:12.245Z,97474.59
2022-11-06T17:29:22.471Z,97475.13
2022-11-06T17:34:23.837Z,97461.97
2022-11-06T17:39:25.761Z,97465.25
2022-11-06T17:44:27.055Z,97475.81
2022-11-06T17:49:28.288Z,97479.16
2022-11-06T17:54:30.403Z,97483.38
2022-11-06T17:59:31.847Z,97481.91
2022-11-06T18:04:34.417Z,97486.34
2022-11-06T18:09:35.752Z,97476.47
2022-11-06T18:14:37.151Z,97465.66
2022-11-06T18:19:38.386Z,97474.19
2022-11-06T18:24:44.457Z,97472.97
2022-11-06T18:29:45.756Z,97484.63
2022-11-06T18:34:47.015Z,97490.09
2022-11-06T18:39:48.224Z,97492.16
2022-11-06T18:44:49.494Z,97486.53
2022-11-06T18:49:50.687Z,97483.59
2022-11-06T18:54:54.721Z,97493.78
2022-11-06T18:59:58.212Z,97505.16
2022-11-06T19:04:59.798Z,97506.66
2022-11-06T19:10:01.218Z,97509.53
2022-11-06T19:15:02.670Z,97507.72
2022-11-06T19:20:04.337Z,97506.44
2022-11-06T19:25:05.562Z,97506.75
2022-11-06T19:30:06.785Z,97496.91
2022-11-06T19:35:08.194Z,97495.22
2022-11-06T19:40:12.938Z,97504.91
2022-11-06T19:45:14.235Z,97498.25
2022-11-06T19:50:19.439Z,97496.53
2022-11-06T19:55:27.894Z,97494.28
2022-11-06T20:00:29.386Z,97494.34
2022-11-06T20:05:30.641Z,97514.66
2022-11-06T20:10:31.853Z,97528.72
2022-11-06T20:15:33.059Z,97536.31
2022-11-06T20:20:36.534Z,97540.34
2022-11-06T20:25:38.108Z,97534.69
2022-11-06T20:30:39.332Z,97539.31
2022-11-06T20:35:40.814Z,97546.84
2022-11-06T20:40:42.075Z,97544.78
2022-11-06T20:45:43.486Z,97543.34
2022-11-06T20:50:45.686Z,97555.75
2022-11-06T20:55:46.909Z,97572.41
2022-11-06T21:00:48.169Z,97579.56
2022-11-06T21:05:49.472Z,97573.59
2022-11-06T21:10:50.709Z,97569.69
2022-11-06T21:15:51.921Z,97557.91
2022-11-06T21:20:53.159Z,97565.38
2022-11-06T21:25:54.396Z,97546.44
2022-11-06T21:30:56.082Z,97561.78
2022-11-06T21:35:57.276Z,97571.41
2022-11-06T21:40:58.514Z,97578.84
2022-11-06T21:45:59.769Z,97586.47
2022-11-06T21:51:00.989Z,97578.19
2022-11-06T21:56:02.632Z,97586.38
2022-11-06T22:01:04.025Z,97594.84
2022-11-06T22:06:05.526Z,97591.16
2022-11-06T22:11:06.760Z,97600.50
2022-11-06T22:16:08.034Z,97613.91
2022-11-06T22:21:09.311Z,97633.94
2022-11-06T22:26:10.525Z,97638.94
2022-11-06T22:31:11.737Z,97635.50
2022-11-06T22:36:12.934Z,97649.09
2022-11-06T22:41:14.271Z,97644.22
2022-11-06T22:46:15.723Z,97643.84
2022-11-06T22:51:17.388Z,97632.97
2022-11-06T22:56:18.642Z,97629.03
2022-11-06T23:01:19.882Z,97630.06
2022-11-06T23:06:21.249Z,97623.44
2022-11-06T23:11:22.555Z,97623.00
2022-11-06T23:16:43.777Z,97629.41
2022-11-06T23:21:45.035Z,97627.63
2022-11-06T23:26:47.307Z,97627.38
2022-11-06T23:31:48.542Z,97631.13
2022-11-06T23:36:49.765Z,97626.19
2022-11-06T23:41:51.131Z,97625.72
2022-11-06T23:46:52.394Z,97635.63
2022-11-06T23:51:53.607Z,97639.75
2022-11-06T23:56:54.882Z,97647.06
